LFSN/ENC METAR and TAF weather

Enter ICAO airport designator
Station Type Date Time Source
LFSN METAR 2021/03/04 21:30 UTC NOAA

LFSN 042130Z AUTO 30004KT 270V330 9999 FEW037 OVC045 08/06 Q1019


Station Type Date Time Source
LFSN Decoded METAR 2021/03/04 21:30 UTC NOAA

Nancy / Essey, France (LFSN) 48-41N 006-13E 217M
Mar 04, 2021 - 04:30 PM EST / 2021.03.04 2130 UTC
Wind: from the WNW (300 degrees) at 5 MPH (4 KT) (direction variable):0
Visibility: greater than 7 mile(s):0
Sky conditions: overcast
Temperature: 46 F (8 C)
Dew Point: 42 F (6 C)
Relative Humidity: 87%
Pressure (altimeter): 30.09 in. Hg (1019 hPa)
ob: LFSN 042130Z AUTO 30004KT 270V330 9999 FEW037 OVC045 08/06 Q1019
cycle: 21

Station Type Date Time Source
LFSN TAF 2012/03/14 16:58 UTC NOAA

TAF LFSN 141600Z 1416/1512 CNL

Example: see airport list